Rusk, Texas
Current Conditions -  °F | °C
As of 2:55 AM on Sunday 26 Oct 2014 (Local Time) from KJSO Reporting Station
Clear Clear  
Wind Chill: 67°   Ceiling: Unl
Heat Index: 67°   Visibility: 10mi
Dew Point: 61°   Wind: 7mph
Humidity: 82%   Direction: 190°S
Pressure: 30.07"   Gusts: NA
Location:  31.8°N, 95.15°W
Report Text: KJSO 260755Z AUTO 19006KT 10SM CLR 19/16 A3007 RMK AO2 T01920161
Loading
Personal Weather Stations






























Interactive Weather Map
Tropical Storm Tracking
New forecast layout! Learn more

10-Day Weather Forecast

Advertisements
Track Severe Weather on mobile